createdAt,value
2023-01-09T00:01:46.953Z,38.80
2023-01-09T00:04:50.710Z,41.57
2023-01-09T00:07:54.495Z,40.07
2023-01-09T00:10:59.843Z,42.87
2023-01-09T00:14:03.642Z,38.87
2023-01-09T00:17:07.398Z,38.07
2023-01-09T00:20:13.183Z,37.37
2023-01-09T00:23:17.214Z,37.20
2023-01-09T00:26:23.349Z,41.33
2023-01-09T00:29:27.176Z,37.53
2023-01-09T00:32:30.937Z,39.43
2023-01-09T00:35:35.450Z,35.90
2023-01-09T00:38:39.324Z,36.77
2023-01-09T00:41:48.244Z,37.37
2023-01-09T00:44:55.882Z,45.13
2023-01-09T00:48:05.462Z,39.43
2023-01-09T00:51:09.715Z,41.87
2023-01-09T00:54:16.792Z,41.00
2023-01-09T00:57:22.154Z,37.20
2023-01-09T01:00:26.095Z,42.63
2023-01-09T01:03:30.482Z,38.80
2023-01-09T01:06:51.493Z,35.87
2023-01-09T01:09:55.328Z,37.77
2023-01-09T01:13:00.579Z,37.57
2023-01-09T01:16:06.123Z,37.03
2023-01-09T01:19:09.871Z,38.67
2023-01-09T01:22:13.759Z,33.43
2023-01-09T01:25:18.370Z,34.30
2023-01-09T01:28:23.683Z,35.73
2023-01-09T01:31:27.440Z,33.13
2023-01-09T01:34:31.952Z,31.37
2023-01-09T01:37:36.351Z,27.27
2023-01-09T01:40:40.982Z,34.07
2023-01-09T01:43:54.487Z,36.80
2023-01-09T01:46:59.065Z,34.27
2023-01-09T01:50:09.927Z,35.03
2023-01-09T01:53:17.972Z,35.10
2023-01-09T01:56:27.307Z,31.33
2023-01-09T01:59:37.686Z,34.57
2023-01-09T02:02:43.762Z,32.20
2023-01-09T02:05:47.646Z,32.87
2023-01-09T02:08:51.838Z,32.23
2023-01-09T02:11:58.994Z,30.70
2023-01-09T02:15:08.358Z,30.73
2023-01-09T02:18:36.656Z,29.07
2023-01-09T02:21:51.840Z,33.07
2023-01-09T02:25:15.414Z,26.73
2023-01-09T02:28:42.559Z,29.23
2023-01-09T02:31:54.742Z,27.90
2023-01-09T02:35:08.591Z,27.70
2023-01-09T02:38:22.532Z,25.57
2023-01-09T02:41:32.723Z,24.43
2023-01-09T02:44:37.306Z,26.07
2023-01-09T02:47:44.885Z,24.27
2023-01-09T02:50:56.842Z,25.77
2023-01-09T02:54:09.820Z,25.93
2023-01-09T02:57:23.392Z,25.70
2023-01-09T03:00:38.816Z,25.17
2023-01-09T03:03:50.781Z,27.33
2023-01-09T03:07:03.076Z,29.90
2023-01-09T03:10:15.772Z,27.47
2023-01-09T03:13:22.643Z,26.40
2023-01-09T03:16:31.237Z,31.07
2023-01-09T03:19:37.389Z,28.27
2023-01-09T03:22:41.318Z,31.87
2023-01-09T03:25:44.945Z,24.60
2023-01-09T03:28:49.273Z,27.00
2023-01-09T03:31:52.990Z,25.37
2023-01-09T03:34:58.203Z,27.50
2023-01-09T03:38:01.780Z,27.23
2023-01-09T03:41:05.820Z,27.60
2023-01-09T03:44:09.614Z,24.40
2023-01-09T03:47:13.425Z,27.03
2023-01-09T03:50:18.745Z,26.43
2023-01-09T03:53:24.034Z,26.73
2023-01-09T03:56:27.727Z,29.23
2023-01-09T03:59:31.265Z,23.73
2023-01-09T04:02:34.881Z,26.13
2023-01-09T04:05:40.414Z,27.40
2023-01-09T04:08:44.224Z,28.10
2023-01-09T04:11:48.111Z,29.67
2023-01-09T04:14:51.700Z,31.10
2023-01-09T04:17:55.362Z,29.67
2023-01-09T04:21:00.396Z,25.70
2023-01-09T04:24:04.203Z,24.10
2023-01-09T04:27:07.891Z,24.33
2023-01-09T04:30:12.844Z,25.83
2023-01-09T04:33:16.527Z,26.00
2023-01-09T04:36:21.817Z,24.50
2023-01-09T04:39:25.583Z,25.93
2023-01-09T04:42:29.218Z,33.10
2023-01-09T04:45:33.227Z,29.53
2023-01-09T04:48:37.132Z,36.43
2023-01-09T04:51:42.533Z,35.37
2023-01-09T04:54:46.291Z,29.53
2023-01-09T04:57:50.108Z,27.10
2023-01-09T05:00:53.806Z,35.57
2023-01-09T05:03:57.784Z,30.00
2023-01-09T05:07:03.515Z,28.07
2023-01-09T05:10:08.472Z,28.23
2023-01-09T05:13:12.304Z,28.63
2023-01-09T05:16:16.495Z,35.60
2023-01-09T05:19:21.794Z,27.57
2023-01-09T05:22:27.118Z,28.50
2023-01-09T05:25:30.723Z,27.97
2023-01-09T05:28:34.694Z,33.33
2023-01-09T05:31:38.589Z,35.20
2023-01-09T05:34:42.443Z,36.13
2023-01-09T05:37:47.833Z,33.27
2023-01-09T05:40:51.555Z,34.07
2023-01-09T05:43:55.383Z,35.87
2023-01-09T05:46:59.759Z,33.43
2023-01-09T05:50:04.609Z,35.73
2023-01-09T05:53:09.920Z,30.37
2023-01-09T05:56:13.671Z,31.73
2023-01-09T05:59:17.602Z,28.50
2023-01-09T06:02:21.572Z,31.13
2023-01-09T06:05:25.380Z,35.27
2023-01-09T06:08:31.032Z,35.90
2023-01-09T06:11:36.032Z,30.27
2023-01-09T06:14:39.865Z,34.03
2023-01-09T06:17:43.760Z,41.07
2023-01-09T06:20:47.503Z,41.60
2023-01-09T06:23:53.096Z,34.33
2023-01-09T06:26:56.735Z,36.43
2023-01-09T06:30:00.583Z,43.40
2023-01-09T06:33:04.393Z,34.97
2023-01-09T06:36:08.875Z,39.13
2023-01-09T06:39:14.693Z,31.30
2023-01-09T06:42:18.615Z,42.93
2023-01-09T06:45:22.504Z,38.87
2023-01-09T06:48:26.672Z,45.97
2023-01-09T06:51:30.396Z,39.87
2023-01-09T06:54:35.851Z,48.57
2023-01-09T06:57:39.904Z,45.13
2023-01-09T07:00:44.194Z,48.00
2023-01-09T07:03:48.504Z,43.70
2023-01-09T07:06:52.573Z,46.50
2023-01-09T07:09:57.794Z,52.67
2023-01-09T07:13:01.666Z,55.40
2023-01-09T07:16:06.104Z,55.57
2023-01-09T07:19:10.036Z,52.80
2023-01-09T07:22:13.792Z,64.97
2023-01-09T07:25:19.293Z,53.73
2023-01-09T07:28:22.953Z,67.17
2023-01-09T07:31:27.065Z,63.97
2023-01-09T07:34:30.893Z,79.47
2023-01-09T07:37:34.614Z,71.40
2023-01-09T07:40:39.964Z,79.17
2023-01-09T07:43:43.813Z,79.00
2023-01-09T07:46:47.715Z,78.00
2023-01-09T07:49:51.755Z,87.80
2023-01-09T07:52:55.565Z,95.53
2023-01-09T07:56:00.954Z,93.73
2023-01-09T07:59:04.789Z,98.77
2023-01-09T08:02:10.658Z,101.80
2023-01-09T08:05:16.165Z,100.83
2023-01-09T08:08:20.022Z,108.10
2023-01-09T08:11:25.546Z,100.83
2023-01-09T08:14:29.252Z,97.47
2023-01-09T08:17:33.091Z,105.33
2023-01-09T08:20:36.823Z,112.40
2023-01-09T08:23:40.724Z,104.70
2023-01-09T08:26:46.025Z,106.90
2023-01-09T08:29:49.844Z,99.43
2023-01-09T08:32:55.272Z,107.00
2023-01-09T08:35:59.107Z,110.70
2023-01-09T08:39:03.088Z,118.20
2023-01-09T08:42:25.765Z,119.50
2023-01-09T08:45:46.866Z,101.37
2023-01-09T08:48:50.725Z,118.00
2023-01-09T08:51:54.654Z,129.07
2023-01-09T08:54:58.566Z,116.33
2023-01-09T08:58:03.941Z,117.13
2023-01-09T09:01:08.575Z,132.73
2023-01-09T09:04:12.785Z,112.57
2023-01-09T09:07:16.787Z,112.83
2023-01-09T09:10:20.925Z,116.03
2023-01-09T09:13:26.283Z,202.23
2023-01-09T09:16:30.444Z,118.93
2023-01-09T09:19:34.223Z,122.30
2023-01-09T09:22:38.137Z,122.97
2023-01-09T09:25:41.911Z,133.60
2023-01-09T09:28:47.458Z,131.20
2023-01-09T09:31:51.374Z,135.93
2023-01-09T09:34:55.375Z,140.20
2023-01-09T09:38:02.637Z,125.40
2023-01-09T09:41:46.812Z,143.77
2023-01-09T09:45:08.249Z,124.50
2023-01-09T09:48:28.017Z,133.87
2023-01-09T09:51:51.835Z,163.10
2023-01-09T09:54:59.148Z,160.53
2023-01-09T09:58:06.494Z,156.47
2023-01-09T10:01:19.771Z,147.10
2023-01-09T10:04:27.502Z,157.60
2023-01-09T10:07:37.173Z,206.17
2023-01-09T10:10:48.387Z,155.83
2023-01-09T10:14:23.409Z,184.27
2023-01-09T10:17:44.666Z,156.80
2023-01-09T10:20:56.420Z,171.90
2023-01-09T10:24:21.296Z,242.90
2023-01-09T10:27:37.585Z,389.37
2023-01-09T10:30:46.317Z,130.90
2023-01-09T10:34:00.771Z,123.60
2023-01-09T10:37:11.640Z,121.00
2023-01-09T10:40:21.825Z,126.67
2023-01-09T10:43:32.465Z,100.50
2023-01-09T10:46:43.315Z,123.73
2023-01-09T10:49:51.497Z,115.10
2023-01-09T10:52:58.516Z,113.70
2023-01-09T10:56:07.415Z,121.63
2023-01-09T10:59:11.962Z,115.70
2023-01-09T11:02:29.019Z,199.63
2023-01-09T11:05:34.284Z,133.13
2023-01-09T11:08:42.486Z,116.30
2023-01-09T11:11:46.456Z,109.70
2023-01-09T11:14:50.337Z,128.00
2023-01-09T11:17:54.172Z,128.83
2023-01-09T11:21:15.364Z,112.07
2023-01-09T11:24:29.102Z,124.37
2023-01-09T11:27:33.003Z,132.27
2023-01-09T11:30:37.892Z,144.33
2023-01-09T11:33:51.983Z,119.30
2023-01-09T11:37:07.976Z,129.27
2023-01-09T11:40:20.829Z,127.90
2023-01-09T11:43:34.023Z,146.03
2023-01-09T11:46:40.357Z,136.07
2023-01-09T11:49:46.414Z,121.67
2023-01-09T11:53:14.464Z,139.20
2023-01-09T11:56:19.145Z,135.77
2023-01-09T11:59:26.288Z,120.87
2023-01-09T12:02:53.515Z,126.80
2023-01-09T12:06:05.174Z,115.03
2023-01-09T12:09:17.975Z,114.37
2023-01-09T12:12:31.719Z,128.23
2023-01-09T12:15:41.503Z,131.20
2023-01-09T12:19:07.339Z,175.20
2023-01-09T12:22:24.898Z,144.83
2023-01-09T12:25:40.444Z,153.00
2023-01-09T12:29:16.271Z,158.07
2023-01-09T12:32:38.151Z,167.67
2023-01-09T12:35:47.179Z,145.73
2023-01-09T12:38:56.486Z,146.43
2023-01-09T12:42:21.894Z,137.63
2023-01-09T12:45:39.087Z,120.27
2023-01-09T12:49:10.646Z,124.57
2023-01-09T12:52:20.729Z,144.37
2023-01-09T12:55:27.085Z,140.57
2023-01-09T12:58:41.104Z,135.27
2023-01-09T13:01:48.346Z,130.67
2023-01-09T13:04:58.054Z,139.23
2023-01-09T13:08:06.825Z,121.90
2023-01-09T13:11:20.290Z,112.83
2023-01-09T13:14:32.787Z,123.40
2023-01-09T13:17:42.114Z,108.90
2023-01-09T13:20:48.977Z,118.93
2023-01-09T13:23:57.763Z,120.23
2023-01-09T13:27:04.834Z,96.50
2023-01-09T13:30:22.662Z,114.93
2023-01-09T13:33:30.613Z,92.97
2023-01-09T13:36:38.472Z,91.67
2023-01-09T13:39:42.291Z,114.33
2023-01-09T13:42:47.501Z,104.30
2023-01-09T13:45:54.472Z,109.73
2023-01-09T13:48:58.205Z,88.67
2023-01-09T13:52:05.417Z,99.03
2023-01-09T13:55:25.710Z,109.27
2023-01-09T13:58:31.651Z,100.13
2023-01-09T14:01:44.834Z,102.87
2023-01-09T14:04:48.653Z,94.07
2023-01-09T14:07:54.416Z,91.73
2023-01-09T14:11:01.203Z,92.53
2023-01-09T14:14:09.344Z,87.60
2023-01-09T14:17:24.487Z,83.90
2023-01-09T14:20:32.445Z,95.50
2023-01-09T14:23:52.078Z,89.13
2023-01-09T14:26:59.287Z,84.07
2023-01-09T14:30:19.055Z,98.53
2023-01-09T14:33:32.982Z,89.60
2023-01-09T14:36:38.671Z,113.17
2023-01-09T14:39:46.449Z,104.40
2023-01-09T14:42:55.004Z,94.10
2023-01-09T14:46:06.177Z,93.63
2023-01-09T14:49:22.726Z,99.77
2023-01-09T14:52:30.875Z,111.70
2023-01-09T14:55:41.613Z,95.00
2023-01-09T14:58:45.469Z,105.53
2023-01-09T15:01:55.460Z,105.03
2023-01-09T15:05:06.243Z,113.03
2023-01-09T15:08:13.849Z,95.93
2023-01-09T15:11:17.855Z,168.17
2023-01-09T15:14:32.893Z,103.67
2023-01-09T15:17:38.515Z,97.87
2023-01-09T15:20:44.463Z,99.50
2023-01-09T15:23:48.254Z,94.80
2023-01-09T15:26:54.690Z,189.07
2023-01-09T15:30:16.223Z,115.57
2023-01-09T15:33:20.753Z,134.67
2023-01-09T15:36:28.179Z,186.10
2023-01-09T15:39:37.531Z,121.60
2023-01-09T15:42:58.301Z,135.63
2023-01-09T15:46:03.041Z,93.83
2023-01-09T15:49:07.084Z,114.33
2023-01-09T15:52:17.193Z,114.30
2023-01-09T15:55:36.089Z,115.40
2023-01-09T15:58:41.480Z,113.07
2023-01-09T16:02:05.728Z,100.30
2023-01-09T16:05:15.171Z,105.43
2023-01-09T16:08:30.973Z,105.43
2023-01-09T16:11:37.632Z,107.20
2023-01-09T16:14:46.000Z,117.97
2023-01-09T16:18:20.184Z,104.87
2023-01-09T16:21:31.359Z,130.27
2023-01-09T16:24:42.403Z,176.00
2023-01-09T16:27:46.294Z,196.63
2023-01-09T16:30:55.800Z,189.27
2023-01-09T16:34:01.801Z,183.77
2023-01-09T16:37:07.142Z,192.77
2023-01-09T16:40:30.141Z,184.60
2023-01-09T16:43:32.952Z,138.23
2023-01-09T16:46:39.805Z,126.67
2023-01-09T16:49:43.632Z,128.27
2023-01-09T16:52:47.682Z,126.73
2023-01-09T16:55:54.737Z,122.43
2023-01-09T16:58:58.664Z,135.23
2023-01-09T17:02:02.562Z,147.87
2023-01-09T17:05:07.260Z,139.43
2023-01-09T17:08:21.383Z,140.87
2023-01-09T17:11:31.767Z,148.37
2023-01-09T17:14:35.964Z,138.63
2023-01-09T17:17:39.766Z,149.53
2023-01-09T17:20:45.608Z,139.57
2023-01-09T17:24:09.788Z,176.43
2023-01-09T17:27:32.603Z,156.67
2023-01-09T17:30:36.397Z,193.73
2023-01-09T17:33:41.458Z,159.07
2023-01-09T17:36:46.209Z,160.23
2023-01-09T17:39:49.973Z,140.03
2023-01-09T17:42:55.405Z,159.47
2023-01-09T17:46:00.329Z,151.67
2023-01-09T17:49:05.178Z,158.33
2023-01-09T17:52:09.093Z,151.93
2023-01-09T17:55:12.952Z,135.33
2023-01-09T17:58:30.521Z,177.10
2023-01-09T18:01:34.665Z,138.53
2023-01-09T18:04:39.367Z,147.00
2023-01-09T18:07:43.212Z,146.70
2023-01-09T18:10:48.807Z,146.93
2023-01-09T18:13:55.172Z,152.40
2023-01-09T18:16:59.007Z,136.23
2023-01-09T18:20:02.906Z,137.87
2023-01-09T18:23:06.789Z,129.23
2023-01-09T18:26:11.894Z,137.43
2023-01-09T18:29:17.203Z,131.57
2023-01-09T18:32:21.064Z,131.13
2023-01-09T18:35:24.924Z,144.30
2023-01-09T18:38:30.226Z,143.60
2023-01-09T18:41:34.261Z,135.40
2023-01-09T18:44:39.542Z,128.47
2023-01-09T18:47:43.340Z,142.80
2023-01-09T18:50:47.642Z,133.30
2023-01-09T18:53:51.880Z,141.07
2023-01-09T18:56:55.752Z,153.17
2023-01-09T19:00:01.026Z,137.50
2023-01-09T19:03:04.807Z,156.60
2023-01-09T19:06:09.443Z,145.80
2023-01-09T19:09:13.633Z,129.00
2023-01-09T19:12:17.443Z,141.13
2023-01-09T19:15:22.777Z,161.87
2023-01-09T19:18:27.217Z,145.07
2023-01-09T19:21:31.203Z,161.03
2023-01-09T19:24:36.394Z,154.73
2023-01-09T19:27:40.291Z,143.77
2023-01-09T19:30:45.656Z,156.63
2023-01-09T19:33:49.413Z,160.47
2023-01-09T19:36:53.544Z,166.87
2023-01-09T19:39:57.376Z,150.90
2023-01-09T19:43:01.302Z,137.23
2023-01-09T19:46:08.519Z,132.17
2023-01-09T19:49:12.509Z,131.23
2023-01-09T19:52:16.376Z,121.17
2023-01-09T19:55:20.264Z,118.67
2023-01-09T19:58:24.903Z,138.03
2023-01-09T20:01:32.750Z,111.17
2023-01-09T20:04:36.703Z,124.60
2023-01-09T20:07:40.538Z,131.03
2023-01-09T20:10:44.452Z,122.87
2023-01-09T20:13:48.143Z,110.20
2023-01-09T20:16:59.431Z,108.13
2023-01-09T20:20:03.218Z,103.30
2023-01-09T20:23:06.983Z,155.53
2023-01-09T20:26:10.786Z,132.67
2023-01-09T20:29:14.642Z,102.00
2023-01-09T20:32:20.163Z,114.80
2023-01-09T20:35:23.912Z,103.17
2023-01-09T20:38:27.875Z,117.37
2023-01-09T20:41:32.193Z,93.43
2023-01-09T20:44:36.014Z,117.87
2023-01-09T20:47:41.265Z,125.40
2023-01-09T20:50:45.012Z,120.70
2023-01-09T20:53:55.829Z,117.97
2023-01-09T20:56:59.684Z,121.30
2023-01-09T21:00:03.697Z,102.93
2023-01-09T21:03:08.945Z,100.87
2023-01-09T21:06:15.089Z,100.90
2023-01-09T21:09:19.171Z,106.43
2023-01-09T21:12:34.935Z,94.23
2023-01-09T21:15:39.991Z,96.20
2023-01-09T21:18:45.815Z,86.40
2023-01-09T21:21:52.212Z,85.30
2023-01-09T21:24:56.765Z,92.57
2023-01-09T21:28:00.631Z,88.47
2023-01-09T21:31:04.390Z,88.53
2023-01-09T21:34:13.387Z,85.23
2023-01-09T21:37:17.283Z,92.20
2023-01-09T21:40:21.229Z,90.07
2023-01-09T21:43:45.231Z,94.93
2023-01-09T21:46:57.752Z,96.00
2023-01-09T21:50:03.141Z,93.23
2023-01-09T21:53:07.002Z,93.40
2023-01-09T21:56:10.814Z,95.53
2023-01-09T21:59:14.786Z,90.40
2023-01-09T22:02:18.705Z,97.17
2023-01-09T22:05:24.771Z,104.00
2023-01-09T22:08:28.555Z,114.57
2023-01-09T22:11:32.483Z,114.67
2023-01-09T22:14:37.702Z,106.40
2023-01-09T22:17:44.343Z,107.37
2023-01-09T22:20:50.076Z,118.07
2023-01-09T22:23:54.308Z,96.27
2023-01-09T22:26:58.337Z,106.07
2023-01-09T22:30:02.125Z,99.30
2023-01-09T22:33:07.674Z,100.20
2023-01-09T22:36:13.593Z,107.03
2023-01-09T22:39:19.823Z,106.83
2023-01-09T22:42:23.656Z,118.60
2023-01-09T22:45:27.617Z,118.27
2023-01-09T22:48:32.643Z,116.20
2023-01-09T22:51:38.001Z,105.57
2023-01-09T22:54:41.882Z,106.80
2023-01-09T22:57:45.760Z,93.77
2023-01-09T23:00:49.643Z,100.07
2023-01-09T23:03:53.483Z,90.37
2023-01-09T23:06:58.893Z,95.93
2023-01-09T23:10:02.800Z,90.97
2023-01-09T23:13:07.083Z,96.90
2023-01-09T23:16:11.266Z,97.57
2023-01-09T23:19:15.887Z,91.23
2023-01-09T23:22:21.235Z,88.13
2023-01-09T23:25:25.027Z,83.57
2023-01-09T23:28:30.682Z,88.47
2023-01-09T23:31:34.916Z,100.40
2023-01-09T23:34:38.774Z,91.93
2023-01-09T23:37:44.391Z,87.57
2023-01-09T23:40:48.275Z,103.73
2023-01-09T23:43:50.994Z,100.13
2023-01-09T23:46:55.087Z,101.07
2023-01-09T23:49:58.695Z,101.77
2023-01-09T23:53:04.510Z,98.17
2023-01-09T23:56:08.483Z,102.73
2023-01-09T23:59:15.095Z,103.43
